Time;durP1;ratioP1;P1;durP2;ratioP2;P2;SDS_P1;SDS_P2;PMS_P1;PMS_P2;Temp;Humidity;BMP_temperature;BMP_pressure;BME280_temperature;BME280_humidity;BME280_pressure;Samples;Min_cycle;Max_cycle;Signal;HPM_P1;HPM_P2
2021/04/23 00:44:24;;;;;;;30.43;13.13;;;;;;;3.66;59.61;99226.13;114917;1202;103149;-70
2021/04/23 00:46:51;;;;;;;37.40;13.90;;;;;;;3.65;59.37;99221.78;114730;1202;103152;-71
2021/04/23 00:49:18;;;;;;;28.35;13.10;;;;;;;3.64;59.69;99221.83;114961;1203;103043;-71
2021/04/23 00:52:02;;;;;;;33.37;13.53;;;;;;;3.64;59.88;99230.59;114722;1203;103159;-71
2021/04/23 00:54:32;;;;;;;33.77;14.50;;;;;;;3.62;59.80;99227.17;114918;1202;103539;-70
2021/04/23 00:57:00;;;;;;;33.90;14.40;;;;;;;3.60;59.49;99234.27;114943;1203;103156;-70
2021/04/23 00:59:27;;;;;;;32.70;13.80;;;;;;;3.57;60.10;99237.86;114671;1203;103738;-71
2021/04/23 01:02:10;;;;;;;33.97;13.57;;;;;;;3.54;59.75;99237.98;114853;1202;103153;-72
2021/04/23 01:04:39;;;;;;;34.13;13.10;;;;;;;3.52;59.67;99234.56;114670;1202;103235;-70
2021/04/23 01:07:09;;;;;;;36.70;13.20;;;;;;;3.52;59.85;99231.09;114667;1203;103076;-71
2021/04/23 01:09:36;;;;;;;32.03;15.17;;;;;;;3.49;60.11;99239.10;114874;1203;103536;-70
2021/04/23 01:12:07;;;;;;;30.93;12.97;;;;;;;3.47;59.80;99239.14;114839;1202;103155;-71
2021/04/23 01:14:37;;;;;;;31.60;12.20;;;;;;;3.46;60.13;99239.22;114888;1201;103169;-71
2021/04/23 01:17:07;;;;;;;32.13;11.73;;;;;;;3.42;59.84;99231.45;114898;1203;103238;-72
2021/04/23 01:19:35;;;;;;;33.00;12.05;;;;;;;3.42;59.82;99247.23;114829;1202;103040;-71
2021/04/23 01:22:03;;;;;;;27.67;11.83;;;;;;;3.43;59.88;99237.59;114808;1203;103145;-71
2021/04/23 01:24:32;;;;;;;28.45;11.45;;;;;;;3.44;60.00;99239.30;114873;1203;103111;-71
2021/04/23 01:26:59;;;;;;;32.00;12.00;;;;;;;3.43;60.25;99240.22;114825;1201;103081;-70
2021/04/23 01:29:26;;;;;;;29.35;11.80;;;;;;;3.44;60.21;99239.30;114767;1203;103079;-70
2021/04/23 01:31:57;;;;;;;30.80;11.00;;;;;;;3.43;59.39;99237.59;114809;1203;103066;-70
2021/04/23 01:34:32;;;;;;;30.30;11.75;;;;;;;3.40;59.64;99235.08;114787;1203;103200;-71
2021/04/23 01:37:04;;;;;;;26.03;10.33;;;;;;;3.36;59.66;99241.38;114703;1203;103168;-73
2021/04/23 01:39:37;;;;;;;26.35;10.90;;;;;;;3.32;60.56;99238.00;114741;1203;103188;-72
2021/04/23 01:42:06;;;;;;;26.93;8.77;;;;;;;3.31;60.10;99245.97;114931;1203;103121;-72
2021/04/23 01:44:39;;;;;;;25.77;10.20;;;;;;;3.28;60.08;99250.42;114855;1203;103062;-72
2021/04/23 01:47:10;;;;;;;26.57;9.97;;;;;;;3.27;59.55;99242.58;114955;1203;103145;-71
2021/04/23 01:49:38;;;;;;;24.60;10.05;;;;;;;3.25;60.38;99242.66;114951;1203;103174;-72
2021/04/23 01:52:16;;;;;;;25.60;9.00;;;;;;;3.25;59.97;99245.28;114948;1203;103198;-70
2021/04/23 01:54:43;;;;;;;23.03;8.30;;;;;;;3.26;60.02;99244.38;114955;1202;103178;-70
2021/04/23 01:57:11;;;;;;;26.50;8.43;;;;;;;3.27;59.76;99247.84;114902;1202;103043;-71
2021/04/23 01:59:42;;;;;;;25.00;9.15;;;;;;;3.30;60.48;99249.51;114940;1202;103175;-71
2021/04/23 02:02:10;;;;;;;26.55;8.70;;;;;;;3.30;60.46;99249.51;114923;1203;103079;-72
2021/04/23 02:04:38;;;;;;;26.87;9.97;;;;;;;3.29;60.36;99256.52;114815;1202;103066;-71
2021/04/23 02:07:09;;;;;;;25.95;9.00;;;;;;;3.29;60.40;99259.16;114842;1202;103117;-71
2021/04/23 02:09:37;;;;;;;27.05;9.45;;;;;;;3.27;60.35;99253.97;114705;1202;103040;-71
2021/04/23 02:12:09;;;;;;;26.10;9.00;;;;;;;3.32;60.16;99261.66;114983;1203;103072;-71
2021/04/23 02:14:39;;;;;;;23.15;9.85;;;;;;;3.32;60.32;99260.82;114997;1200;103072;-70
2021/04/23 02:17:09;;;;;;;23.95;9.20;;;;;;;3.33;60.16;99267.80;114998;1203;103088;-71
2021/04/23 02:19:37;;;;;;;29.00;9.75;;;;;;;3.34;60.19;99270.34;114981;1202;103111;-71
2021/04/23 02:22:07;;;;;;;32.90;9.90;;;;;;;3.35;60.70;99266.80;114991;1203;103079;-71
2021/04/23 02:24:37;;;;;;;26.85;10.15;;;;;;;3.34;60.03;99270.34;114818;1201;103229;-70
2021/04/23 02:27:05;;;;;;;25.70;7.87;;;;;;;3.34;60.49;99272.14;114947;1202;103148;-72
2021/04/23 02:29:32;;;;;;;23.95;9.40;;;;;;;3.33;60.64;99266.00;114955;1203;103075;-71
2021/04/23 02:32:03;;;;;;;24.50;8.60;;;;;;;3.33;60.37;99273.05;115005;1202;103092;-71
2021/04/23 02:34:31;;;;;;;24.90;9.50;;;;;;;3.28;60.18;99263.57;114731;1201;103041;-71
2021/04/23 02:36:58;;;;;;;26.90;10.25;;;;;;;3.26;60.49;99265.41;115016;1202;103535;-71
2021/04/23 02:39:26;;;;;;;26.70;8.23;;;;;;;3.23;60.27;99268.15;114894;1203;103043;-71
2021/04/23 02:41:56;;;;;;;29.70;9.90;;;;;;;3.24;59.90;99266.39;115418;1203;103086;-72
2021/04/23 02:44:30;;;;;;;29.97;9.47;;;;;;;3.21;59.88;99263.88;115542;1203;103213;-72
2021/04/23 02:46:57;;;;;;;26.90;8.40;;;;;;;3.17;60.45;99265.76;114953;1203;103219;-71
2021/04/23 02:49:28;;;;;;;27.87;10.10;;;;;;;3.17;60.12;99272.80;114989;1203;103197;-71
2021/04/23 02:51:58;;;;;;;23.45;9.00;;;;;;;3.18;60.38;99275.36;114906;1202;103085;-71
2021/04/23 02:54:26;;;;;;;25.50;8.93;;;;;;;3.18;60.15;99271.89;114977;1201;103114;-72
2021/04/23 02:56:56;;;;;;;29.50;9.80;;;;;;;3.16;60.35;99274.56;114748;1202;103671;-73
2021/04/23 02:59:23;;;;;;;25.15;9.55;;;;;;;3.17;60.47;99275.43;114824;1203;103111;-72
2021/04/23 03:01:56;;;;;;;24.90;9.45;;;;;;;3.17;60.26;99278.06;114705;1203;103105;-72
2021/04/23 03:04:27;;;;;;;27.20;11.30;;;;;;;3.17;60.89;99280.69;115255;1202;103091;-71
2021/04/23 03:06:57;;;;;;;28.25;9.40;;;;;;;3.16;60.55;99277.19;114899;1201;103117;-72
2021/04/23 03:09:24;;;;;;;27.97;10.43;;;;;;;3.16;60.43;99285.08;115019;1202;103165;-72
2021/04/23 03:11:53;;;;;;;27.45;9.30;;;;;;;3.15;60.89;99282.52;114710;1202;104761;-71
2021/04/23 03:14:22;;;;;;;28.20;10.60;;;;;;;3.15;60.57;99282.52;114777;1201;103050;-71
2021/04/23 03:16:49;;;;;;;26.85;9.00;;;;;;;3.13;60.36;99279.94;114847;1203;103146;-72
2021/04/23 03:19:20;;;;;;;25.90;9.40;;;;;;;3.11;60.98;99281.77;114958;1203;103332;-72
2021/04/23 03:21:52;;;;;;;27.67;10.03;;;;;;;3.09;60.76;99283.59;114879;1202;103095;-71
2021/04/23 03:24:19;;;;;;;30.40;10.50;;;;;;;3.09;61.00;99283.59;114921;1203;103183;-72
2021/04/23 03:26:48;;;;;;;25.77;9.67;;;;;;;3.08;60.52;99287.13;114896;1203;103072;-72
2021/04/23 03:29:19;;;;;;;25.30;9.60;;;;;;;3.05;60.55;99292.53;115884;1203;103043;-70
2021/04/23 03:31:48;;;;;;;23.87;9.03;;;;;;;3.02;60.75;99298.75;114952;1203;103504;-70
2021/04/23 03:34:18;;;;;;;27.05;8.40;;;;;;;2.98;60.98;99300.66;115556;1202;103158;-71
2021/04/23 03:36:45;;;;;;;26.40;9.85;;;;;;;2.97;60.22;99308.58;114930;1203;103065;-71
2021/04/23 03:39:12;;;;;;;27.50;9.30;;;;;;;2.95;60.66;99297.27;114705;1203;103059;-71
2021/04/23 03:41:42;;;;;;;23.57;8.50;;;;;;;2.95;60.67;99305.15;114953;1203;103043;-71
2021/04/23 03:44:10;;;;;;;28.00;9.13;;;;;;;2.94;60.25;99303.44;114908;1200;103172;-73
2021/04/23 03:46:39;;;;;;;23.20;8.15;;;;;;;2.91;60.36;99307.05;114921;1203;103222;-71
2021/04/23 03:49:09;;;;;;;23.90;7.77;;;;;;;2.89;60.54;99305.38;114953;1202;103091;-72
2021/04/23 03:51:37;;;;;;;23.57;7.50;;;;;;;2.90;60.80;99302.70;114897;1201;103046;-72
2021/04/23 03:54:04;;;;;;;28.95;9.65;;;;;;;2.91;60.42;99306.17;114951;1203;103043;-71
2021/04/23 03:56:33;;;;;;;25.50;8.13;;;;;;;2.91;60.56;99306.17;114935;1202;103533;-74
2021/04/23 03:59:00;;;;;;;21.70;7.73;;;;;;;2.93;61.14;99305.22;114914;1202;103184;-69
2021/04/23 04:01:34;;;;;;;24.87;7.80;;;;;;;2.97;61.25;99308.58;114871;1203;103146;-70
2021/04/23 04:04:06;;;;;;;;;;;;;;;2.98;61.21;99318.17;115422;1208;103044;-72
2021/04/23 04:06:33;;;;;;;28.03;8.97;;;;;;;2.99;61.51;99309.38;114864;1201;103098;-69
2021/04/23 04:09:00;;;;;;;29.07;9.57;;;;;;;3.03;60.60;99315.39;115621;1202;103056;-70
2021/04/23 04:11:27;;;;;;;27.20;8.57;;;;;;;3.06;60.75;99323.13;114927;1203;103150;-70
2021/04/23 04:13:55;;;;;;;25.57;8.27;;;;;;;3.10;61.17;99322.98;114900;1202;103149;-70
2021/04/23 04:16:22;;;;;;;24.27;9.33;;;;;;;3.12;60.92;99320.27;114909;1202;103172;-72
2021/04/23 04:18:50;;;;;;;23.20;7.50;;;;;;;3.13;61.11;99320.23;114882;1202;103265;-71
2021/04/23 04:21:20;;;;;;;25.47;7.73;;;;;;;3.15;61.00;99330.67;114764;1202;103127;-70
2021/04/23 04:23:47;;;;;;;19.03;6.97;;;;;;;3.17;60.65;99328.01;114924;1203;103648;-69
2021/04/23 04:26:14;;;;;;;21.30;7.70;;;;;;;3.20;61.08;99330.52;114943;1203;103034;-70
2021/04/23 04:28:42;;;;;;;26.85;8.75;;;;;;;3.20;61.67;99335.77;115007;1203;103151;-71
2021/04/23 04:31:15;;;;;;;27.57;8.57;;;;;;;3.24;61.22;99342.63;114949;1203;103095;-70
2021/04/23 04:33:53;;;;;;;24.60;8.70;;;;;;;3.26;61.72;99349.53;114688;1203;103127;-71
2021/04/23 04:36:20;;;;;;;23.70;8.35;;;;;;;3.27;60.95;99345.12;114910;1202;103203;-70
2021/04/23 04:38:48;;;;;;;24.35;8.05;;;;;;;3.31;61.49;99345.88;114906;1202;103056;-70
2021/04/23 04:41:19;;;;;;;23.80;8.80;;;;;;;3.33;61.43;99349.30;114958;1203;103162;-73
2021/04/23 04:43:46;;;;;;;26.50;8.50;;;;;;;3.35;61.11;99344.84;114891;1203;103082;-71
2021/04/23 04:46:13;;;;;;;23.13;8.57;;;;;;;3.38;61.61;99349.98;114793;1202;103095;-70
2021/04/23 04:48:41;;;;;;;26.45;9.65;;;;;;;3.42;61.24;99362.11;114956;1203;103123;-69
2021/04/23 04:51:09;;;;;;;26.17;8.27;;;;;;;3.46;61.60;99355.81;114932;1203;103564;-70
2021/04/23 04:53:37;;;;;;;25.85;7.95;;;;;;;3.52;61.60;99354.70;114934;1203;103082;-71
2021/04/23 04:56:05;;;;;;;26.77;8.13;;;;;;;3.58;61.38;99351.84;114896;1202;103150;-70
2021/04/23 04:58:36;;;;;;;23.97;6.53;;;;;;;3.64;61.70;99356.86;115838;1202;103043;-71
2021/04/23 05:01:10;;;;;;;22.95;6.70;;;;;;;3.71;61.51;99360.09;114733;1202;103306;-71
2021/04/23 05:03:40;;;;;;;25.85;8.50;;;;;;;3.75;61.95;99359.06;114936;1203;103268;-71
2021/04/23 05:06:11;;;;;;;21.03;7.43;;;;;;;3.81;61.61;99363.20;114957;1203;103150;-71
2021/04/23 05:08:38;;;;;;;23.97;7.93;;;;;;;3.85;62.10;99367.43;114979;1202;103177;-73
2021/04/23 05:11:08;;;;;;;23.70;7.80;;;;;;;3.92;61.57;99362.77;114983;1203;103049;-70
2021/04/23 05:13:35;;;;;;;22.55;7.60;;;;;;;3.96;62.16;99367.86;114957;1203;103229;-71
2021/04/23 05:16:03;;;;;;;23.40;7.70;;;;;;;4.00;62.15;99372.09;114974;1203;103079;-70
2021/04/23 05:18:32;;;;;;;25.35;7.30;;;;;;;4.02;62.17;99370.25;114717;1202;103168;-71
2021/04/23 05:20:59;;;;;;;24.00;7.90;;;;;;;4.04;61.51;99372.80;114822;1203;103535;-73
2021/04/23 05:23:28;;;;;;;20.90;7.50;;;;;;;4.06;62.03;99364.86;114674;1203;103072;-71
2021/04/23 05:25:56;;;;;;;27.35;11.25;;;;;;;4.09;62.29;99377.87;114974;1202;103181;-68
2021/04/23 05:28:25;;;;;;;21.05;7.20;;;;;;;4.18;62.07;99374.86;114953;1202;103094;-69
2021/04/23 05:30:53;;;;;;;21.40;7.70;;;;;;;4.23;61.92;99377.33;115085;1202;103114;-70
2021/04/23 05:33:20;;;;;;;24.47;7.63;;;;;;;4.25;62.42;99372.85;114872;1203;103049;-69
2021/04/23 05:35:47;;;;;;;25.27;7.73;;;;;;;4.26;62.10;99374.56;115009;1201;103188;-70
2021/04/23 05:38:15;;;;;;;23.70;7.75;;;;;;;4.29;62.21;99388.45;114987;1202;103230;-70
2021/04/23 05:40:47;;;;;;;22.30;7.67;;;;;;;4.31;62.41;99377.84;114967;1203;103047;-69
2021/04/23 05:43:20;;;;;;;24.67;8.10;;;;;;;4.31;62.54;99389.24;114748;1203;103076;-70
2021/04/23 05:45:51;;;;;;;24.17;9.20;;;;;;;4.31;62.47;99391.88;115008;1203;103133;-71
2021/04/23 05:48:21;;;;;;;28.70;8.63;;;;;;;4.30;62.53;99384.02;115037;1203;103159;-70
2021/04/23 05:50:51;;;;;;;27.10;9.15;;;;;;;4.32;62.19;99385.69;114976;1202;103226;-69
2021/04/23 05:53:18;;;;;;;29.10;9.00;;;;;;;4.36;62.17;99380.30;114684;1203;103175;-70
2021/04/23 05:55:48;;;;;;;22.67;8.17;;;;;;;4.39;62.61;99396.81;114705;1203;103198;-70
2021/04/23 05:58:16;;;;;;;26.40;10.40;;;;;;;4.41;62.33;99383.59;114888;1202;103172;-68
2021/04/23 06:00:46;;;;;;;25.77;9.03;;;;;;;4.45;62.23;99390.45;114661;1203;103207;-69
2021/04/23 06:03:14;;;;;;;24.55;9.25;;;;;;;4.47;62.34;99399.14;115007;1203;103082;-69
2021/04/23 06:05:47;;;;;;;24.55;8.40;;;;;;;4.46;62.59;99403.55;114858;1203;103110;-70
2021/04/23 06:08:14;;;;;;;20.00;7.75;;;;;;;4.47;62.02;99394.72;114888;1203;103053;-70
2021/04/23 06:10:44;;;;;;;24.60;8.10;;;;;;;4.50;62.67;99401.62;114909;1202;103504;-69
2021/04/23 06:13:13;;;;;;;23.57;9.00;;;;;;;4.50;62.17;99408.69;114887;1203;103082;-69
2021/04/23 06:15:41;;;;;;;23.90;9.25;;;;;;;4.52;62.60;99412.11;114656;1202;103220;-70
2021/04/23 06:18:12;;;;;;;27.53;8.90;;;;;;;4.58;62.04;99414.48;114876;1203;103193;-70
2021/04/23 06:20:42;;;;;;;24.50;8.50;;;;;;;4.63;62.78;99417.79;114893;1202;103079;-72
2021/04/23 06:23:15;;;;;;;26.70;9.60;;;;;;;4.67;62.18;99411.47;114893;1203;103481;-70
2021/04/23 06:25:43;;;;;;;23.55;7.95;;;;;;;4.70;62.67;99419.21;114968;1201;103475;-68
2021/04/23 06:28:10;;;;;;;25.70;8.70;;;;;;;4.75;62.70;99408.49;114909;1203;103213;-69
2021/04/23 06:30:39;;;;;;;26.87;9.07;;;;;;;4.80;62.91;99419.70;114767;1203;103069;-69
2021/04/23 06:33:16;;;;;;;26.87;9.93;;;;;;;4.85;62.98;99411.58;114759;1203;103040;-69
2021/04/23 06:35:44;;;;;;;24.60;8.20;;;;;;;4.90;62.88;99413.08;114936;1202;103073;-69
2021/04/23 06:38:12;;;;;;;25.10;9.33;;;;;;;4.99;62.58;99413.60;114977;1203;103072;-68
2021/04/23 06:40:40;;;;;;;27.00;9.00;;;;;;;5.06;62.94;99423.83;114646;1202;103211;-69
2021/04/23 06:43:07;;;;;;;26.80;9.77;;;;;;;5.13;62.45;99419.13;114784;1203;103163;-69
2021/04/23 06:45:36;;;;;;;33.27;11.67;;;;;;;5.16;62.74;99410.21;114882;1201;103043;-69
2021/04/23 06:48:04;;;;;;;26.47;9.97;;;;;;;5.18;62.77;99419.78;114893;1203;103149;-71
2021/04/23 06:50:32;;;;;;;27.75;9.50;;;;;;;5.23;62.44;99416.09;114900;1203;103078;-70
2021/04/23 06:53:00;;;;;;;29.40;11.17;;;;;;;5.27;62.34;99418.50;114945;1201;103535;-70
2021/04/23 06:55:27;;;;;;;27.40;10.15;;;;;;;5.33;62.94;99417.36;114907;1203;103159;-69
2021/04/23 06:57:55;;;;;;;25.50;9.30;;;;;;;5.41;62.76;99417.88;114682;1202;103129;-68
2021/04/23 07:00:30;;;;;;;25.87;9.60;;;;;;;5.57;63.07;99423.30;114924;1202;103082;-69
2021/04/23 07:02:58;;;;;;;31.07;11.00;;;;;;;5.76;62.53;99420.65;114864;1203;103095;-69
2021/04/23 07:05:28;;;;;;;27.90;9.70;;;;;;;5.93;62.68;99419.00;114856;1203;103069;-68
2021/04/23 07:07:56;;;;;;;29.50;10.77;;;;;;;6.13;62.68;99422.48;114643;1203;103529;-69
2021/04/23 07:10:26;;;;;;;26.05;10.25;;;;;;;6.73;62.05;99418.66;115118;1203;103146;-68
2021/04/23 07:12:54;;;;;;;26.67;9.07;;;;;;;7.29;62.04;99414.83;114868;1203;103063;-71
2021/04/23 07:15:23;;;;;;;31.83;9.80;;;;;;;7.29;62.50;99412.19;114614;1203;103130;-69
2021/04/23 07:17:54;;;;;;;29.67;11.47;;;;;;;7.39;62.29;99423.13;114940;1202;103155;-68
2021/04/23 07:20:35;;;;;;;29.93;9.58;;;;;;;7.59;62.45;99422.04;114886;1202;103057;-69
2021/04/23 07:23:04;;;;;;;26.23;9.33;;;;;;;7.64;62.75;99418.29;114892;1203;103271;-68
2021/04/23 07:25:32;;;;;;;22.75;8.40;;;;;;;7.95;62.58;99413.92;114922;1202;103152;-68
2021/04/23 07:28:00;;;;;;;19.85;7.70;;;;;;;8.18;62.34;99413.45;114957;1202;104173;-68
2021/04/23 07:30:31;;;;;;;28.00;8.55;;;;;;;9.32;61.50;99417.42;114895;1202;103168;-67
2021/04/23 07:32:59;;;;;;;22.85;8.65;;;;;;;9.87;61.48;99409.59;114841;1201;103066;-69
2021/04/23 07:35:28;;;;;;;27.35;10.20;;;;;;;10.97;60.97;99413.84;114939;1201;103095;-69
2021/04/23 07:37:57;;;;;;;24.17;8.83;;;;;;;10.71;61.80;99412.95;114613;1202;103145;-69
2021/04/23 07:40:26;;;;;;;22.20;8.57;;;;;;;10.53;62.29;99421.23;114940;1203;103041;-68
2021/04/23 07:42:54;;;;;;;25.50;8.70;;;;;;;10.56;62.28;99414.85;114581;1202;103215;-68
2021/04/23 07:45:22;;;;;;;23.00;8.70;;;;;;;10.54;61.66;99424.73;114882;1203;103060;-69
2021/04/23 07:47:50;;;;;;;24.30;8.60;;;;;;;11.11;61.23;99423.53;114631;1202;103517;-69
2021/04/23 07:50:20;;;;;;;23.00;8.47;;;;;;;10.96;62.01;99422.78;114799;1202;103156;-69
2021/04/23 07:52:48;;;;;;;24.83;8.80;;;;;;;10.78;62.30;99419.57;114975;1203;103057;-68
2021/04/23 07:55:16;;;;;;;23.45;8.30;;;;;;;11.24;61.41;99426.19;115007;1203;103302;-69
2021/04/23 07:57:47;;;;;;;26.33;8.67;;;;;;;12.72;59.85;99418.25;114838;1202;103165;-67
2021/04/23 08:00:19;;;;;;;19.73;7.20;;;;;;;14.09;60.20;99403.95;114902;1201;103130;-69
2021/04/23 08:02:46;;;;;;;21.87;7.43;;;;;;;14.92;59.35;99413.22;114575;1202;103294;-68
2021/04/23 08:05:17;;;;;;;18.50;7.05;;;;;;;15.70;59.23;99415.44;115057;1203;104569;-68
2021/04/23 08:08:05;;;;;;;22.03;8.00;;;;;;;16.50;59.88;99412.78;114859;1202;103121;-69
2021/04/23 08:10:35;;;;;;;21.65;7.95;;;;;;;16.52;59.91;99408.95;115321;1203;103329;-70
2021/04/23 08:13:05;;;;;;;24.47;8.67;;;;;;;16.32;60.39;99402.73;114850;1202;103146;-70
2021/04/23 08:15:33;;;;;;;21.80;8.00;;;;;;;16.78;59.79;99402.98;114959;1203;103114;-69
2021/04/23 08:18:01;;;;;;;20.33;8.03;;;;;;;17.43;59.27;99406.80;114982;1203;103498;-69
2021/04/23 08:20:29;;;;;;;21.53;7.90;;;;;;;17.97;59.65;99406.11;114916;1202;103165;-69
2021/04/23 08:22:58;;;;;;;21.10;7.80;;;;;;;18.45;59.60;99391.48;114876;1202;103293;-67
2021/04/23 08:25:25;;;;;;;18.17;7.30;;;;;;;19.26;59.77;99401.34;114947;1203;103226;-70
2021/04/23 08:27:53;;;;;;;19.50;7.30;;;;;;;19.55;59.08;99392.89;114934;1203;103040;-70
2021/04/23 08:30:24;;;;;;;18.43;7.10;;;;;;;19.83;59.41;99391.81;114902;1202;103059;-69
2021/04/23 08:32:53;;;;;;;17.25;6.60;;;;;;;20.44;59.11;99389.77;114681;1202;103277;-72
2021/04/23 08:35:22;;;;;;;17.85;7.60;;;;;;;20.32;58.96;99386.56;114847;1203;103168;-69
2021/04/23 08:37:50;;;;;;;19.90;6.63;;;;;;;20.47;58.48;99385.88;114876;1202;103066;-70
2021/04/23 08:40:20;;;;;;;17.00;6.45;;;;;;;20.68;58.58;99394.34;114543;1201;103143;-68
2021/04/23 08:42:48;;;;;;;14.87;5.20;;;;;;;21.00;57.69;99390.95;114890;1202;103011;-68
2021/04/23 08:45:20;;;;;;;20.75;7.30;;;;;;;20.51;57.77;99379.98;114872;1203;103111;-68
2021/04/23 08:47:48;;;;;;;16.77;6.23;;;;;;;20.74;57.75;99384.70;114729;1202;103670;-72
2021/04/23 08:50:21;;;;;;;16.80;5.47;;;;;;;20.36;57.34;99396.02;114947;1202;103040;-71
2021/04/23 08:52:50;;;;;;;16.85;6.10;;;;;;;19.88;56.29;99393.04;114880;1201;103066;-70
2021/04/23 08:55:22;;;;;;;12.10;5.47;;;;;;;19.93;57.14;99381.77;114942;1203;103163;-72
2021/04/23 08:58:11;;;;;;;14.00;5.10;;;;;;;19.54;56.23;99379.58;114942;1202;103411;-71
2021/04/23 09:00:39;;;;;;;15.13;5.30;;;;;;;19.15;56.33;99379.06;114905;1202;103088;-71
2021/04/23 09:03:12;;;;;;;15.85;5.45;;;;;;;18.62;55.59;99388.08;114907;1202;103298;-76
2021/04/23 09:05:40;;;;;;;16.70;5.65;;;;;;;18.67;55.42;99378.52;114666;1202;103085;-71
2021/04/23 09:08:11;;;;;;;16.43;5.00;;;;;;;18.98;55.20;99386.17;114888;1202;103140;-69
2021/04/23 09:10:40;;;;;;;14.45;5.75;;;;;;;19.01;54.76;99380.46;114811;1203;103098;-69
2021/04/23 09:13:16;;;;;;;20.50;5.60;;;;;;;18.67;55.59;99381.20;114609;1201;103203;-70
2021/04/23 09:15:45;;;;;;;18.53;4.77;;;;;;;18.29;55.03;99377.86;114859;1203;103159;-69
2021/04/23 09:18:21;;;;;;;11.73;4.93;;;;;;;18.24;54.66;99383.72;114855;1203;103162;-71
2021/04/23 09:21:04;;;;;;;13.83;5.30;;;;;;;17.54;54.51;99379.72;114770;1202;104697;-71
2021/04/23 09:23:32;;;;;;;18.70;5.90;;;;;;;17.13;54.24;99376.50;114976;1202;103065;-69
2021/04/23 09:26:00;;;;;;;17.50;5.20;;;;;;;17.23;54.71;99368.39;114912;1203;103066;-73
2021/04/23 09:28:40;;;;;;;14.03;4.50;;;;;;;17.57;54.21;99367.80;114911;1202;103049;-71
2021/04/23 09:31:24;;;;;;;15.23;5.30;;;;;;;16.96;53.78;99373.56;114587;1202;103180;-70
2021/04/23 09:33:57;;;;;;;14.80;5.35;;;;;;;16.27;53.19;99377.31;114947;1203;103152;-71
2021/04/23 09:36:39;;;;;;;15.10;5.28;;;;;;;15.50;53.31;99372.45;114910;1202;103622;-70
2021/04/23 09:39:06;;;;;;;12.63;4.23;;;;;;;14.97;53.13;99368.14;114809;1203;103302;-70
2021/04/23 09:41:34;;;;;;;15.00;5.67;;;;;;;14.28;52.37;99373.85;114873;1202;103179;-69
2021/04/23 09:44:02;;;;;;;18.60;5.70;;;;;;;13.74;52.74;99372.93;114920;1203;103117;-75
2021/04/23 09:46:38;;;;;;;15.53;4.83;;;;;;;13.39;52.35;99372.08;114921;1203;103188;-73
2021/04/23 09:49:18;;;;;;;14.00;4.95;;;;;;;13.39;52.04;99369.41;114956;1203;103094;-71
2021/04/23 09:51:46;;;;;;;21.75;9.55;;;;;;;13.55;52.15;99355.70;114823;1202;103363;-70
2021/04/23 09:54:20;;;;;;;11.85;4.40;;;;;;;13.49;52.01;99350.84;114825;1202;103171;-70
2021/04/23 09:56:49;;;;;;;13.00;4.47;;;;;;;13.28;52.00;99368.57;114775;1203;103174;-69
2021/04/23 09:59:28;;;;;;;17.03;5.17;;;;;;;13.05;51.87;99361.40;114686;1201;103088;-69
2021/04/23 10:02:00;;;;;;;13.13;5.10;;;;;;;12.72;51.42;99376.41;114728;1203;103144;-70
2021/04/23 10:04:35;;;;;;;19.55;5.80;;;;;;;12.20;51.35;99355.38;114878;1202;103251;-74
2021/04/23 10:07:28;;;;;;;14.80;5.40;;;;;;;11.86;50.63;99370.32;114895;1203;103043;-73
2021/04/23 10:10:01;;;;;;;17.25;5.63;;;;;;;11.43;51.11;99379.63;114947;1203;103108;-71
2021/04/23 10:12:54;;;;;;;;;;;;;;;11.20;50.41;99379.45;114920;1208;103146;-71
2021/04/23 10:15:30;;;;;;;14.20;4.27;;;;;;;10.83;50.53;99377.54;114915;1202;103169;-72
2021/04/23 10:18:06;;;;;;;13.10;4.10;;;;;;;10.62;50.31;99390.50;114916;1203;103084;-73
2021/04/23 10:20:37;;;;;;;14.53;5.03;;;;;;;10.32;50.00;99409.33;114956;1202;103091;-73
2021/04/23 10:23:07;;;;;;;15.60;5.40;;;;;;;9.83;49.58;99403.59;114913;1203;104712;-73
2021/04/23 10:25:36;;;;;;;17.07;5.67;;;;;;;9.33;49.59;99414.69;114921;1202;103139;-77
2021/04/23 10:28:10;;;;;;;15.00;5.80;;;;;;;9.04;50.17;99409.36;116546;1202;101979;-72
2021/04/23 10:30:43;;;;;;;15.07;5.47;;;;;;;8.97;50.23;99407.18;115438;1203;103178;-71
2021/04/23 10:33:14;;;;;;;14.15;4.75;;;;;;;8.98;50.00;99411.54;116546;1200;102017;-71
2021/04/23 10:35:44;;;;;;;14.47;5.07;;;;;;;9.01;49.93;99406.89;115721;1203;101637;-71
2021/04/23 10:38:14;;;;;;;14.97;4.70;;;;;;;9.01;49.86;99414.01;114840;1202;103156;-71
2021/04/23 10:40:47;;;;;;;11.00;4.07;;;;;;;9.02;49.64;99405.94;114646;1201;103118;-73
2021/04/23 10:43:17;;;;;;;14.90;4.75;;;;;;;9.02;49.68;99400.63;114641;1202;103145;-76
2021/04/23 10:45:48;;;;;;;13.70;4.97;;;;;;;9.14;49.78;99404.36;114955;1201;103043;-73
2021/04/23 10:48:16;;;;;;;14.13;4.93;;;;;;;9.12;49.79;99414.22;114876;1203;103181;-75
2021/04/23 10:50:50;;;;;;;16.95;5.85;;;;;;;9.13;50.00;99410.62;114911;1203;103181;-74
2021/04/23 10:53:19;;;;;;;15.45;6.50;;;;;;;9.17;49.76;99405.96;114964;1202;103191;-75
2021/04/23 10:55:48;;;;;;;15.30;5.47;;;;;;;9.11;49.63;99406.33;114911;1203;103100;-71
2021/04/23 10:58:37;;;;;;;17.10;5.80;;;;;;;9.15;49.65;99407.85;114933;1202;104781;-74
2021/04/23 11:01:14;;;;;;;15.05;4.80;;;;;;;9.07;49.62;99408.33;114934;1202;103110;-74
2021/04/23 11:03:43;;;;;;;15.17;5.70;;;;;;;8.96;49.48;99409.00;114926;1202;103150;-73
2021/04/23 11:06:14;;;;;;;17.45;5.45;;;;;;;8.91;49.71;99395.98;114911;1203;103213;-72
2021/04/23 11:09:00;;;;;;;12.93;5.27;;;;;;;8.89;50.04;99392.58;114897;1202;103079;-72
2021/04/23 11:11:33;;;;;;;12.33;5.07;;;;;;;8.92;49.77;99388.90;114748;1201;103063;-72
2021/04/23 11:14:19;;;;;;;16.47;5.80;;;;;;;9.02;49.58;99382.06;114914;1203;103162;-74
2021/04/23 11:16:48;;;;;;;14.80;5.95;;;;;;;9.11;49.79;99377.14;114933;1201;103065;-72
2021/04/23 11:19:18;;;;;;;14.37;5.80;;;;;;;9.23;50.16;99382.53;114942;1203;103037;-71
2021/04/23 11:21:50;;;;;;;16.30;6.07;;;;;;;9.28;50.07;99376.09;114858;1203;103153;-72
2021/04/23 11:24:24;;;;;;;11.10;4.80;;;;;;;9.31;49.86;99370.59;115000;1202;103066;-73
2021/04/23 11:26:57;;;;;;;;;;;;;;;9.34;50.19;99368.62;114950;1208;103036;-73
2021/04/23 11:29:41;;;;;;;11.80;4.60;;;;;;;9.46;50.10;99364.33;114894;1203;103145;-71
2021/04/23 11:32:24;;;;;;;11.27;4.60;;;;;;;9.58;49.91;99364.50;114640;1203;103328;-74
2021/04/23 11:34:56;;;;;;;16.40;5.25;;;;;;;9.58;50.14;99373.31;114907;1203;103271;-73
2021/04/23 11:37:24;;;;;;;11.15;5.00;;;;;;;9.64;50.19;99372.05;114942;1202;103143;-74
2021/04/23 11:39:55;;;;;;;12.90;4.87;;;;;;;9.68;50.01;99373.56;114915;1202;103040;-74
2021/04/23 11:42:39;;;;;;;14.80;5.00;;;;;;;9.65;49.75;99360.48;114959;1203;103079;-75
2021/04/23 11:45:10;;;;;;;13.50;4.60;;;;;;;9.64;49.69;99358.77;114913;1203;103255;-75
2021/04/23 11:47:49;;;;;;;18.00;5.80;;;;;;;9.59;49.70;99366.17;114846;1202;103084;-75
2021/04/23 11:50:25;;;;;;;18.85;6.40;;;;;;;9.62;49.92;99364.20;114900;1203;103117;-75
2021/04/23 11:52:54;;;;;;;14.30;5.50;;;;;;;9.64;49.96;99353.46;114901;1202;103079;-74
2021/04/23 11:55:33;;;;;;;19.60;5.35;;;;;;;9.74;50.16;99341.30;114859;1202;103124;-74
2021/04/23 11:58:23;;;;;;;13.77;4.97;;;;;;;9.86;49.94;99362.72;114853;1202;103072;-73
2021/04/23 12:00:56;;;;;;;17.15;6.40;;;;;;;9.83;50.04;99361.96;114896;1203;103056;-73
2021/04/23 12:03:25;;;;;;;18.50;6.30;;;;;;;9.81;50.00;99360.34;114925;1203;103034;-73
2021/04/23 12:05:58;;;;;;;15.03;5.70;;;;;;;9.91;50.05;99371.24;114850;1203;103152;-76
2021/04/23 12:08:35;;;;;;;14.00;5.60;;;;;;;9.96;49.90;99363.83;114943;1203;103063;-72
2021/04/23 12:11:06;;;;;;;12.30;4.90;;;;;;;10.05;50.13;99371.17;114722;1203;103242;-73
2021/04/23 12:13:41;;;;;;;10.53;4.73;;;;;;;10.08;50.19;99378.95;114969;1202;103091;-73